sensor_id;sensor_type;location;lat;lon;timestamp;P1;durP1;ratioP1;P2;durP2;ratioP2
14686;SDS011;7431;49.440;11.084;2023-04-07T00:00:45;9.97;;;7.47;;
14686;SDS011;7431;49.440;11.084;2023-04-07T00:03:11;9.30;;;7.47;;
14686;SDS011;7431;49.440;11.084;2023-04-07T00:05:37;8.87;;;7.33;;
14686;SDS011;7431;49.440;11.084;2023-04-07T00:08:03;9.20;;;7.67;;
14686;SDS011;7431;49.440;11.084;2023-04-07T00:10:29;9.37;;;8.33;;
14686;SDS011;7431;49.440;11.084;2023-04-07T00:12:56;9.47;;;8.00;;
14686;SDS011;7431;49.440;11.084;2023-04-07T00:15:22;9.07;;;7.90;;
14686;SDS011;7431;49.440;11.084;2023-04-07T00:17:48;9.47;;;7.47;;
14686;SDS011;7431;49.440;11.084;2023-04-07T00:20:14;10.30;;;7.47;;
14686;SDS011;7431;49.440;11.084;2023-04-07T00:22:40;8.33;;;7.40;;
14686;SDS011;7431;49.440;11.084;2023-04-07T00:25:07;8.23;;;7.30;;
14686;SDS011;7431;49.440;11.084;2023-04-07T00:27:33;9.83;;;8.27;;
14686;SDS011;7431;49.440;11.084;2023-04-07T00:29:59;9.40;;;7.77;;
14686;SDS011;7431;49.440;11.084;2023-04-07T00:32:25;8.30;;;7.50;;
14686;SDS011;7431;49.440;11.084;2023-04-07T00:34:51;8.93;;;8.03;;
14686;SDS011;7431;49.440;11.084;2023-04-07T00:37:17;8.77;;;7.53;;
14686;SDS011;7431;49.440;11.084;2023-04-07T00:39:43;9.60;;;7.90;;
14686;SDS011;7431;49.440;11.084;2023-04-07T00:42:10;9.70;;;7.43;;
14686;SDS011;7431;49.440;11.084;2023-04-07T00:44:36;10.30;;;8.40;;
14686;SDS011;7431;49.440;11.084;2023-04-07T00:47:02;9.10;;;7.73;;
14686;SDS011;7431;49.440;11.084;2023-04-07T00:49:28;8.97;;;7.87;;
14686;SDS011;7431;49.440;11.084;2023-04-07T00:51:56;10.10;;;7.70;;
14686;SDS011;7431;49.440;11.084;2023-04-07T00:54:22;10.80;;;8.10;;
14686;SDS011;7431;49.440;11.084;2023-04-07T00:56:48;10.33;;;8.10;;
14686;SDS011;7431;49.440;11.084;2023-04-07T00:59:15;10.70;;;8.90;;
14686;SDS011;7431;49.440;11.084;2023-04-07T01:04:19;13.33;;;10.77;;
14686;SDS011;7431;49.440;11.084;2023-04-07T01:06:48;15.00;;;10.37;;
14686;SDS011;7431;49.440;11.084;2023-04-07T01:09:17;11.53;;;9.27;;
14686;SDS011;7431;49.440;11.084;2023-04-07T01:11:50;11.77;;;9.50;;
14686;SDS011;7431;49.440;11.084;2023-04-07T01:14:20;11.97;;;9.87;;
14686;SDS011;7431;49.440;11.084;2023-04-07T01:16:48;11.13;;;9.50;;
14686;SDS011;7431;49.440;11.084;2023-04-07T01:19:15;12.77;;;10.00;;
14686;SDS011;7431;49.440;11.084;2023-04-07T01:21:42;14.60;;;10.27;;
14686;SDS011;7431;49.440;11.084;2023-04-07T01:26:37;13.43;;;9.53;;
14686;SDS011;7431;49.440;11.084;2023-04-07T01:31:42;12.13;;;9.10;;
14686;SDS011;7431;49.440;11.084;2023-04-07T01:34:09;11.37;;;9.60;;
14686;SDS011;7431;49.440;11.084;2023-04-07T01:36:36;11.80;;;9.10;;
14686;SDS011;7431;49.440;11.084;2023-04-07T01:39:02;9.70;;;8.40;;
14686;SDS011;7431;49.440;11.084;2023-04-07T01:41:29;9.17;;;8.17;;
14686;SDS011;7431;49.440;11.084;2023-04-07T01:43:56;10.63;;;9.00;;
14686;SDS011;7431;49.440;11.084;2023-04-07T01:46:22;10.33;;;8.60;;
14686;SDS011;7431;49.440;11.084;2023-04-07T01:48:48;10.30;;;9.23;;
14686;SDS011;7431;49.440;11.084;2023-04-07T01:51:15;13.47;;;9.17;;
14686;SDS011;7431;49.440;11.084;2023-04-07T01:53:43;9.70;;;8.33;;
14686;SDS011;7431;49.440;11.084;2023-04-07T01:56:10;10.93;;;8.13;;
14686;SDS011;7431;49.440;11.084;2023-04-07T01:58:36;10.80;;;9.03;;
14686;SDS011;7431;49.440;11.084;2023-04-07T02:01:02;11.03;;;8.77;;
14686;SDS011;7431;49.440;11.084;2023-04-07T02:03:35;9.73;;;8.33;;
14686;SDS011;7431;49.440;11.084;2023-04-07T02:06:05;10.33;;;8.93;;
14686;SDS011;7431;49.440;11.084;2023-04-07T02:08:32;9.33;;;8.03;;
14686;SDS011;7431;49.440;11.084;2023-04-07T02:10:58;10.90;;;8.87;;
14686;SDS011;7431;49.440;11.084;2023-04-07T02:13:27;10.60;;;8.77;;
14686;SDS011;7431;49.440;11.084;2023-04-07T02:15:54;10.27;;;8.47;;
14686;SDS011;7431;49.440;11.084;2023-04-07T02:18:21;11.13;;;8.87;;
14686;SDS011;7431;49.440;11.084;2023-04-07T02:20:48;9.87;;;8.80;;
14686;SDS011;7431;49.440;11.084;2023-04-07T02:23:15;9.30;;;8.30;;
14686;SDS011;7431;49.440;11.084;2023-04-07T02:25:41;10.20;;;8.30;;
14686;SDS011;7431;49.440;11.084;2023-04-07T02:28:07;11.00;;;9.00;;
14686;SDS011;7431;49.440;11.084;2023-04-07T02:30:33;9.33;;;8.30;;
14686;SDS011;7431;49.440;11.084;2023-04-07T02:33:00;10.67;;;8.90;;
14686;SDS011;7431;49.440;11.084;2023-04-07T02:35:26;10.00;;;8.07;;
14686;SDS011;7431;49.440;11.084;2023-04-07T02:37:52;10.20;;;7.97;;
14686;SDS011;7431;49.440;11.084;2023-04-07T02:40:18;11.67;;;7.83;;
14686;SDS011;7431;49.440;11.084;2023-04-07T02:42:44;10.63;;;7.83;;
14686;SDS011;7431;49.440;11.084;2023-04-07T02:45:11;9.93;;;8.37;;
14686;SDS011;7431;49.440;11.084;2023-04-07T02:47:37;10.20;;;8.53;;
14686;SDS011;7431;49.440;11.084;2023-04-07T02:50:03;10.57;;;8.10;;
14686;SDS011;7431;49.440;11.084;2023-04-07T02:52:29;9.67;;;8.67;;
14686;SDS011;7431;49.440;11.084;2023-04-07T02:54:56;10.47;;;8.23;;
14686;SDS011;7431;49.440;11.084;2023-04-07T02:57:22;9.77;;;8.30;;
14686;SDS011;7431;49.440;11.084;2023-04-07T02:59:47;9.03;;;7.83;;
14686;SDS011;7431;49.440;11.084;2023-04-07T03:02:13;10.23;;;8.33;;
14686;SDS011;7431;49.440;11.084;2023-04-07T03:04:41;9.77;;;8.50;;
14686;SDS011;7431;49.440;11.084;2023-04-07T03:07:07;9.80;;;8.53;;
14686;SDS011;7431;49.440;11.084;2023-04-07T03:09:33;9.70;;;8.43;;
14686;SDS011;7431;49.440;11.084;2023-04-07T03:11:59;10.80;;;7.87;;
14686;SDS011;7431;49.440;11.084;2023-04-07T03:14:26;9.70;;;8.70;;
14686;SDS011;7431;49.440;11.084;2023-04-07T03:16:52;10.33;;;8.33;;
14686;SDS011;7431;49.440;11.084;2023-04-07T03:19:18;10.83;;;8.50;;
14686;SDS011;7431;49.440;11.084;2023-04-07T03:21:44;10.60;;;8.57;;
14686;SDS011;7431;49.440;11.084;2023-04-07T03:24:10;10.17;;;8.60;;
14686;SDS011;7431;49.440;11.084;2023-04-07T03:26:36;10.27;;;8.83;;
14686;SDS011;7431;49.440;11.084;2023-04-07T03:29:02;11.63;;;8.70;;
14686;SDS011;7431;49.440;11.084;2023-04-07T03:31:28;9.40;;;8.23;;
14686;SDS011;7431;49.440;11.084;2023-04-07T03:33:54;9.30;;;8.30;;
14686;SDS011;7431;49.440;11.084;2023-04-07T03:36:20;10.33;;;9.07;;
14686;SDS011;7431;49.440;11.084;2023-04-07T03:38:46;11.57;;;8.80;;
14686;SDS011;7431;49.440;11.084;2023-04-07T03:41:12;9.30;;;8.07;;
14686;SDS011;7431;49.440;11.084;2023-04-07T03:43:39;12.93;;;9.20;;
14686;SDS011;7431;49.440;11.084;2023-04-07T03:46:05;10.40;;;8.60;;
14686;SDS011;7431;49.440;11.084;2023-04-07T03:48:32;9.93;;;8.77;;
14686;SDS011;7431;49.440;11.084;2023-04-07T03:50:58;10.60;;;8.90;;
14686;SDS011;7431;49.440;11.084;2023-04-07T03:53:24;11.57;;;9.73;;
14686;SDS011;7431;49.440;11.084;2023-04-07T03:55:50;10.70;;;9.60;;
14686;SDS011;7431;49.440;11.084;2023-04-07T03:58:16;11.47;;;9.63;;
14686;SDS011;7431;49.440;11.084;2023-04-07T04:00:42;12.40;;;9.60;;
14686;SDS011;7431;49.440;11.084;2023-04-07T04:03:08;10.97;;;9.53;;
14686;SDS011;7431;49.440;11.084;2023-04-07T04:05:34;10.37;;;9.37;;
14686;SDS011;7431;49.440;11.084;2023-04-07T04:08:00;11.00;;;9.60;;
14686;SDS011;7431;49.440;11.084;2023-04-07T04:10:26;11.17;;;9.93;;
14686;SDS011;7431;49.440;11.084;2023-04-07T04:12:53;11.57;;;9.47;;
14686;SDS011;7431;49.440;11.084;2023-04-07T04:15:19;10.93;;;8.90;;
14686;SDS011;7431;49.440;11.084;2023-04-07T04:17:45;10.27;;;9.23;;
14686;SDS011;7431;49.440;11.084;2023-04-07T04:20:11;11.20;;;9.63;;
14686;SDS011;7431;49.440;11.084;2023-04-07T04:22:37;11.27;;;9.87;;
14686;SDS011;7431;49.440;11.084;2023-04-07T04:25:03;10.13;;;9.07;;
14686;SDS011;7431;49.440;11.084;2023-04-07T04:27:29;10.80;;;9.23;;
14686;SDS011;7431;49.440;11.084;2023-04-07T04:29:55;10.27;;;8.93;;
14686;SDS011;7431;49.440;11.084;2023-04-07T04:32:21;13.73;;;9.77;;
14686;SDS011;7431;49.440;11.084;2023-04-07T04:34:47;11.63;;;9.40;;
14686;SDS011;7431;49.440;11.084;2023-04-07T04:37:13;12.17;;;9.13;;
14686;SDS011;7431;49.440;11.084;2023-04-07T04:39:39;10.93;;;9.20;;
14686;SDS011;7431;49.440;11.084;2023-04-07T04:42:05;10.57;;;9.37;;
14686;SDS011;7431;49.440;11.084;2023-04-07T04:44:31;11.40;;;8.73;;
14686;SDS011;7431;49.440;11.084;2023-04-07T04:46:57;11.23;;;9.90;;
14686;SDS011;7431;49.440;11.084;2023-04-07T04:49:23;10.37;;;9.30;;
14686;SDS011;7431;49.440;11.084;2023-04-07T04:51:49;9.70;;;8.67;;
14686;SDS011;7431;49.440;11.084;2023-04-07T04:54:17;9.50;;;8.60;;
14686;SDS011;7431;49.440;11.084;2023-04-07T04:56:42;14.07;;;9.20;;
14686;SDS011;7431;49.440;11.084;2023-04-07T04:59:08;11.13;;;9.23;;
14686;SDS011;7431;49.440;11.084;2023-04-07T05:01:34;10.47;;;9.17;;
14686;SDS011;7431;49.440;11.084;2023-04-07T05:04:01;10.40;;;8.90;;
14686;SDS011;7431;49.440;11.084;2023-04-07T05:06:27;10.53;;;9.20;;
14686;SDS011;7431;49.440;11.084;2023-04-07T05:08:53;9.80;;;8.73;;
14686;SDS011;7431;49.440;11.084;2023-04-07T05:11:19;11.30;;;8.90;;
14686;SDS011;7431;49.440;11.084;2023-04-07T05:13:46;10.77;;;9.47;;
14686;SDS011;7431;49.440;11.084;2023-04-07T05:16:12;13.23;;;9.17;;
14686;SDS011;7431;49.440;11.084;2023-04-07T05:18:38;12.57;;;9.47;;
14686;SDS011;7431;49.440;11.084;2023-04-07T05:21:04;10.43;;;9.20;;
14686;SDS011;7431;49.440;11.084;2023-04-07T05:23:30;9.23;;;8.03;;
14686;SDS011;7431;49.440;11.084;2023-04-07T05:25:56;10.27;;;8.37;;
14686;SDS011;7431;49.440;11.084;2023-04-07T05:28:22;9.07;;;8.17;;
14686;SDS011;7431;49.440;11.084;2023-04-07T05:30:49;9.33;;;8.33;;
14686;SDS011;7431;49.440;11.084;2023-04-07T05:33:15;8.70;;;7.73;;
14686;SDS011;7431;49.440;11.084;2023-04-07T05:35:43;9.33;;;7.83;;
14686;SDS011;7431;49.440;11.084;2023-04-07T05:38:09;9.97;;;8.00;;
14686;SDS011;7431;49.440;11.084;2023-04-07T05:40:36;9.63;;;7.93;;
14686;SDS011;7431;49.440;11.084;2023-04-07T05:43:02;10.00;;;8.03;;
14686;SDS011;7431;49.440;11.084;2023-04-07T05:45:28;10.33;;;8.40;;
14686;SDS011;7431;49.440;11.084;2023-04-07T05:47:54;10.07;;;9.07;;
14686;SDS011;7431;49.440;11.084;2023-04-07T05:50:20;9.50;;;8.37;;
14686;SDS011;7431;49.440;11.084;2023-04-07T05:52:46;9.23;;;8.33;;
14686;SDS011;7431;49.440;11.084;2023-04-07T05:55:12;8.47;;;7.60;;
14686;SDS011;7431;49.440;11.084;2023-04-07T05:57:38;9.30;;;8.30;;
14686;SDS011;7431;49.440;11.084;2023-04-07T06:00:04;10.47;;;8.43;;
14686;SDS011;7431;49.440;11.084;2023-04-07T06:02:30;8.93;;;7.57;;
14686;SDS011;7431;49.440;11.084;2023-04-07T06:04:56;8.43;;;7.63;;
14686;SDS011;7431;49.440;11.084;2023-04-07T06:07:23;8.80;;;8.00;;
14686;SDS011;7431;49.440;11.084;2023-04-07T06:09:49;9.70;;;8.27;;
14686;SDS011;7431;49.440;11.084;2023-04-07T06:12:15;9.37;;;7.90;;
14686;SDS011;7431;49.440;11.084;2023-04-07T06:14:41;9.57;;;8.27;;
14686;SDS011;7431;49.440;11.084;2023-04-07T06:17:07;8.53;;;7.63;;
14686;SDS011;7431;49.440;11.084;2023-04-07T06:19:33;10.13;;;8.17;;
14686;SDS011;7431;49.440;11.084;2023-04-07T06:21:59;9.23;;;8.23;;
14686;SDS011;7431;49.440;11.084;2023-04-07T06:24:25;9.43;;;8.57;;
14686;SDS011;7431;49.440;11.084;2023-04-07T06:26:51;9.05;;;8.15;;
14686;SDS011;7431;49.440;11.084;2023-04-07T06:29:17;9.13;;;8.23;;
14686;SDS011;7431;49.440;11.084;2023-04-07T06:31:44;9.60;;;8.60;;
14686;SDS011;7431;49.440;11.084;2023-04-07T06:34:10;8.80;;;7.90;;
14686;SDS011;7431;49.440;11.084;2023-04-07T06:36:36;8.82;;;8.02;;
14686;SDS011;7431;49.440;11.084;2023-04-07T06:39:02;8.82;;;8.00;;
14686;SDS011;7431;49.440;11.084;2023-04-07T06:41:29;9.75;;;8.85;;
14686;SDS011;7431;49.440;11.084;2023-04-07T06:43:55;9.23;;;7.90;;
14686;SDS011;7431;49.440;11.084;2023-04-07T06:46:21;8.52;;;7.72;;
14686;SDS011;7431;49.440;11.084;2023-04-07T06:48:50;10.00;;;8.52;;
14686;SDS011;7431;49.440;11.084;2023-04-07T06:51:16;9.30;;;8.40;;
14686;SDS011;7431;49.440;11.084;2023-04-07T06:53:42;10.10;;;8.30;;
14686;SDS011;7431;49.440;11.084;2023-04-07T06:56:11;9.60;;;8.60;;
14686;SDS011;7431;49.440;11.084;2023-04-07T06:58:37;9.52;;;8.63;;
14686;SDS011;7431;49.440;11.084;2023-04-07T07:01:03;9.52;;;8.52;;
14686;SDS011;7431;49.440;11.084;2023-04-07T07:03:30;8.80;;;7.95;;
14686;SDS011;7431;49.440;11.084;2023-04-07T07:05:59;12.40;;;11.20;;
14686;SDS011;7431;49.440;11.084;2023-04-07T07:08:26;9.35;;;8.50;;
14686;SDS011;7431;49.440;11.084;2023-04-07T07:10:53;9.85;;;8.55;;
14686;SDS011;7431;49.440;11.084;2023-04-07T07:13:22;10.32;;;9.20;;
14686;SDS011;7431;49.440;11.084;2023-04-07T07:15:48;10.50;;;9.43;;
14686;SDS011;7431;49.440;11.084;2023-04-07T07:18:15;10.68;;;9.65;;
14686;SDS011;7431;49.440;11.084;2023-04-07T07:20:41;10.13;;;8.80;;
14686;SDS011;7431;49.440;11.084;2023-04-07T07:23:07;10.98;;;9.88;;
14686;SDS011;7431;49.440;11.084;2023-04-07T07:25:33;10.45;;;9.48;;
14686;SDS011;7431;49.440;11.084;2023-04-07T07:27:59;10.38;;;9.40;;
14686;SDS011;7431;49.440;11.084;2023-04-07T07:30:25;11.55;;;10.35;;
14686;SDS011;7431;49.440;11.084;2023-04-07T07:32:52;10.20;;;9.25;;
14686;SDS011;7431;49.440;11.084;2023-04-07T07:35:18;12.45;;;9.75;;
14686;SDS011;7431;49.440;11.084;2023-04-07T07:37:44;10.30;;;9.30;;
14686;SDS011;7431;49.440;11.084;2023-04-07T07:40:10;10.98;;;9.98;;
14686;SDS011;7431;49.440;11.084;2023-04-07T07:42:37;11.13;;;10.02;;
14686;SDS011;7431;49.440;11.084;2023-04-07T07:45:03;11.38;;;10.30;;
14686;SDS011;7431;49.440;11.084;2023-04-07T07:47:29;11.40;;;9.55;;
14686;SDS011;7431;49.440;11.084;2023-04-07T07:49:55;10.75;;;9.77;;
14686;SDS011;7431;49.440;11.084;2023-04-07T07:52:21;10.18;;;9.10;;
14686;SDS011;7431;49.440;11.084;2023-04-07T07:54:47;11.00;;;9.75;;
14686;SDS011;7431;49.440;11.084;2023-04-07T07:57:13;10.48;;;9.48;;
14686;SDS011;7431;49.440;11.084;2023-04-07T07:59:40;11.02;;;9.93;;
14686;SDS011;7431;49.440;11.084;2023-04-07T08:02:06;12.40;;;10.13;;
14686;SDS011;7431;49.440;11.084;2023-04-07T08:04:32;11.30;;;10.20;;
14686;SDS011;7431;49.440;11.084;2023-04-07T08:06:58;11.07;;;9.98;;
14686;SDS011;7431;49.440;11.084;2023-04-07T08:09:24;10.23;;;9.23;;
14686;SDS011;7431;49.440;11.084;2023-04-07T08:11:51;11.13;;;9.25;;
14686;SDS011;7431;49.440;11.084;2023-04-07T08:14:17;11.45;;;9.63;;
14686;SDS011;7431;49.440;11.084;2023-04-07T08:16:43;10.30;;;9.25;;
14686;SDS011;7431;49.440;11.084;2023-04-07T08:19:09;11.30;;;10.10;;
14686;SDS011;7431;49.440;11.084;2023-04-07T08:21:36;9.65;;;8.70;;
14686;SDS011;7431;49.440;11.084;2023-04-07T08:24:02;14.15;;;12.75;;
14686;SDS011;7431;49.440;11.084;2023-04-07T08:26:28;10.70;;;9.63;;
14686;SDS011;7431;49.440;11.084;2023-04-07T08:28:54;10.70;;;9.60;;
14686;SDS011;7431;49.440;11.084;2023-04-07T08:31:20;11.60;;;9.30;;
14686;SDS011;7431;49.440;11.084;2023-04-07T08:33:46;10.73;;;9.63;;
14686;SDS011;7431;49.440;11.084;2023-04-07T08:36:12;10.30;;;9.20;;
14686;SDS011;7431;49.440;11.084;2023-04-07T08:38:38;12.03;;;9.30;;
14686;SDS011;7431;49.440;11.084;2023-04-07T08:41:11;10.87;;;9.43;;
14686;SDS011;7431;49.440;11.084;2023-04-07T08:43:38;9.63;;;8.70;;
14686;SDS011;7431;49.440;11.084;2023-04-07T08:46:05;10.90;;;8.73;;
14686;SDS011;7431;49.440;11.084;2023-04-07T08:48:34;9.60;;;8.60;;
14686;SDS011;7431;49.440;11.084;2023-04-07T08:51:05;13.57;;;9.67;;
14686;SDS011;7431;49.440;11.084;2023-04-07T08:53:48;10.57;;;9.30;;
14686;SDS011;7431;49.440;11.084;2023-04-07T08:56:17;9.73;;;8.73;;
14686;SDS011;7431;49.440;11.084;2023-04-07T08:58:43;10.23;;;9.30;;
14686;SDS011;7431;49.440;11.084;2023-04-07T09:01:10;10.35;;;9.27;;
14686;SDS011;7431;49.440;11.084;2023-04-07T09:03:36;10.10;;;9.07;;
14686;SDS011;7431;49.440;11.084;2023-04-07T09:06:03;9.50;;;8.57;;
14686;SDS011;7431;49.440;11.084;2023-04-07T09:08:29;9.52;;;8.63;;
14686;SDS011;7431;49.440;11.084;2023-04-07T09:10:55;9.93;;;8.93;;
14686;SDS011;7431;49.440;11.084;2023-04-07T09:13:25;10.13;;;8.97;;
14686;SDS011;7431;49.440;11.084;2023-04-07T09:15:51;10.20;;;9.23;;
14686;SDS011;7431;49.440;11.084;2023-04-07T09:18:20;11.50;;;10.30;;
14686;SDS011;7431;49.440;11.084;2023-04-07T09:21:19;11.23;;;9.40;;
14686;SDS011;7431;49.440;11.084;2023-04-07T09:23:39;11.15;;;9.73;;
14686;SDS011;7431;49.440;11.084;2023-04-07T09:28:46;10.35;;;9.35;;
14686;SDS011;7431;49.440;11.084;2023-04-07T09:31:12;10.13;;;9.02;;
14686;SDS011;7431;49.440;11.084;2023-04-07T09:33:38;10.53;;;9.33;;
14686;SDS011;7431;49.440;11.084;2023-04-07T09:36:05;9.32;;;8.35;;
14686;SDS011;7431;49.440;11.084;2023-04-07T09:38:35;10.82;;;8.98;;
14686;SDS011;7431;49.440;11.084;2023-04-07T09:41:08;10.80;;;9.60;;
14686;SDS011;7431;49.440;11.084;2023-04-07T09:43:35;10.70;;;9.60;;
14686;SDS011;7431;49.440;11.084;2023-04-07T09:46:09;13.50;;;10.30;;
14686;SDS011;7431;49.440;11.084;2023-04-07T09:48:35;9.80;;;8.90;;
14686;SDS011;7431;49.440;11.084;2023-04-07T09:51:05;11.18;;;10.07;;
14686;SDS011;7431;49.440;11.084;2023-04-07T09:53:48;11.82;;;10.20;;
14686;SDS011;7431;49.440;11.084;2023-04-07T09:56:14;11.35;;;10.25;;
14686;SDS011;7431;49.440;11.084;2023-04-07T09:58:42;11.55;;;10.35;;
14686;SDS011;7431;49.440;11.084;2023-04-07T10:01:08;12.90;;;11.57;;
14686;SDS011;7431;49.440;11.084;2023-04-07T10:03:35;11.90;;;10.77;;
14686;SDS011;7431;49.440;11.084;2023-04-07T10:06:02;11.25;;;10.20;;
14686;SDS011;7431;49.440;11.084;2023-04-07T10:08:30;11.20;;;9.90;;
14686;SDS011;7431;49.440;11.084;2023-04-07T10:10:57;10.93;;;9.93;;
14686;SDS011;7431;49.440;11.084;2023-04-07T10:13:25;11.73;;;10.30;;
14686;SDS011;7431;49.440;11.084;2023-04-07T10:15:51;11.32;;;10.02;;
14686;SDS011;7431;49.440;11.084;2023-04-07T10:18:18;11.38;;;10.25;;
14686;SDS011;7431;49.440;11.084;2023-04-07T10:20:45;10.98;;;9.95;;
14686;SDS011;7431;49.440;11.084;2023-04-07T10:23:18;14.32;;;10.32;;
14686;SDS011;7431;49.440;11.084;2023-04-07T10:25:46;12.98;;;11.20;;
14686;SDS011;7431;49.440;11.084;2023-04-07T10:28:13;11.05;;;9.93;;
14686;SDS011;7431;49.440;11.084;2023-04-07T10:30:40;12.65;;;10.65;;
14686;SDS011;7431;49.440;11.084;2023-04-07T10:33:10;11.05;;;9.88;;
14686;SDS011;7431;49.440;11.084;2023-04-07T10:36:01;10.80;;;9.75;;
14686;SDS011;7431;49.440;11.084;2023-04-07T10:38:22;12.48;;;10.30;;
14686;SDS011;7431;49.440;11.084;2023-04-07T10:40:48;11.68;;;10.23;;
14686;SDS011;7431;49.440;11.084;2023-04-07T10:43:15;11.90;;;10.47;;
14686;SDS011;7431;49.440;11.084;2023-04-07T10:46:00;10.88;;;9.77;;
14686;SDS011;7431;49.440;11.084;2023-04-07T10:48:26;11.50;;;10.35;;
14686;SDS011;7431;49.440;11.084;2023-04-07T10:51:27;11.40;;;10.20;;
14686;SDS011;7431;49.440;11.084;2023-04-07T10:59:16;11.15;;;10.05;;
14686;SDS011;7431;49.440;11.084;2023-04-07T11:01:43;11.30;;;10.20;;
14686;SDS011;7431;49.440;11.084;2023-04-07T11:04:09;12.70;;;11.40;;
14686;SDS011;7431;49.440;11.084;2023-04-07T11:06:35;11.10;;;9.80;;
14686;SDS011;7431;49.440;11.084;2023-04-07T11:09:17;10.00;;;9.00;;
14686;SDS011;7431;49.440;11.084;2023-04-07T11:11:44;9.75;;;8.75;;
14686;SDS011;7431;49.440;11.084;2023-04-07T11:14:11;12.32;;;9.40;;
14686;SDS011;7431;49.440;11.084;2023-04-07T11:16:50;9.68;;;8.77;;
14686;SDS011;7431;49.440;11.084;2023-04-07T11:19:17;10.32;;;9.32;;
14686;SDS011;7431;49.440;11.084;2023-04-07T11:21:43;9.88;;;8.80;;
14686;SDS011;7431;49.440;11.084;2023-04-07T11:24:09;9.55;;;8.65;;
14686;SDS011;7431;49.440;11.084;2023-04-07T11:26:36;10.07;;;9.07;;
14686;SDS011;7431;49.440;11.084;2023-04-07T11:29:03;10.23;;;9.25;;
14686;SDS011;7431;49.440;11.084;2023-04-07T11:31:29;10.88;;;9.73;;
14686;SDS011;7431;49.440;11.084;2023-04-07T11:33:59;11.10;;;10.00;;
14686;SDS011;7431;49.440;11.084;2023-04-07T11:36:36;11.73;;;10.60;;
14686;SDS011;7431;49.440;11.084;2023-04-07T11:39:03;11.32;;;10.23;;
14686;SDS011;7431;49.440;11.084;2023-04-07T11:41:32;10.77;;;9.48;;
14686;SDS011;7431;49.440;11.084;2023-04-07T11:44:10;12.10;;;10.85;;
14686;SDS011;7431;49.440;11.084;2023-04-07T11:46:53;11.68;;;10.45;;
14686;SDS011;7431;49.440;11.084;2023-04-07T11:49:19;11.60;;;9.73;;
14686;SDS011;7431;49.440;11.084;2023-04-07T11:51:46;12.00;;;10.80;;
14686;SDS011;7431;49.440;11.084;2023-04-07T11:54:12;11.05;;;10.05;;
14686;SDS011;7431;49.440;11.084;2023-04-07T11:56:40;11.07;;;9.85;;
14686;SDS011;7431;49.440;11.084;2023-04-07T11:59:07;11.98;;;10.85;;
14686;SDS011;7431;49.440;11.084;2023-04-07T12:01:39;11.85;;;10.75;;
14686;SDS011;7431;49.440;11.084;2023-04-07T12:04:11;11.30;;;10.20;;
14686;SDS011;7431;49.440;11.084;2023-04-07T12:06:39;13.55;;;12.25;;
14686;SDS011;7431;49.440;11.084;2023-04-07T12:09:07;12.20;;;10.98;;
14686;SDS011;7431;49.440;11.084;2023-04-07T12:11:33;11.85;;;10.57;;
14686;SDS011;7431;49.440;11.084;2023-04-07T12:14:00;11.43;;;10.25;;
14686;SDS011;7431;49.440;11.084;2023-04-07T12:16:29;16.63;;;12.68;;
14686;SDS011;7431;49.440;11.084;2023-04-07T12:18:55;12.00;;;10.80;;
14686;SDS011;7431;49.440;11.084;2023-04-07T12:21:21;12.38;;;11.07;;
14686;SDS011;7431;49.440;11.084;2023-04-07T12:23:50;13.23;;;11.88;;
14686;SDS011;7431;49.440;11.084;2023-04-07T12:26:16;13.70;;;12.25;;
14686;SDS011;7431;49.440;11.084;2023-04-07T12:28:42;14.15;;;12.70;;
14686;SDS011;7431;49.440;11.084;2023-04-07T12:31:09;12.93;;;11.27;;
14686;SDS011;7431;49.440;11.084;2023-04-07T12:33:35;12.77;;;11.48;;
14686;SDS011;7431;49.440;11.084;2023-04-07T12:36:01;13.68;;;12.32;;
14686;SDS011;7431;49.440;11.084;2023-04-07T12:38:27;13.00;;;11.80;;
14686;SDS011;7431;49.440;11.084;2023-04-07T12:40:53;12.02;;;10.70;;
14686;SDS011;7431;49.440;11.084;2023-04-07T12:43:19;13.55;;;12.20;;
14686;SDS011;7431;49.440;11.084;2023-04-07T12:45:45;12.55;;;11.45;;
14686;SDS011;7431;49.440;11.084;2023-04-07T12:48:11;11.75;;;10.65;;
14686;SDS011;7431;49.440;11.084;2023-04-07T12:50:37;11.98;;;10.88;;
14686;SDS011;7431;49.440;11.084;2023-04-07T12:53:03;11.98;;;10.77;;
14686;SDS011;7431;49.440;11.084;2023-04-07T12:55:30;11.93;;;10.80;;
14686;SDS011;7431;49.440;11.084;2023-04-07T12:58:00;11.95;;;10.50;;
14686;SDS011;7431;49.440;11.084;2023-04-07T13:00:27;12.25;;;11.00;;
14686;SDS011;7431;49.440;11.084;2023-04-07T13:02:53;12.25;;;10.98;;
14686;SDS011;7431;49.440;11.084;2023-04-07T13:05:19;13.13;;;11.93;;
14686;SDS011;7431;49.440;11.084;2023-04-07T13:07:45;12.65;;;11.35;;
14686;SDS011;7431;49.440;11.084;2023-04-07T13:10:11;12.73;;;11.50;;
14686;SDS011;7431;49.440;11.084;2023-04-07T13:12:37;12.18;;;11.02;;
14686;SDS011;7431;49.440;11.084;2023-04-07T13:15:04;12.38;;;11.23;;
14686;SDS011;7431;49.440;11.084;2023-04-07T13:17:30;12.65;;;11.48;;
14686;SDS011;7431;49.440;11.084;2023-04-07T13:19:56;12.50;;;11.23;;
14686;SDS011;7431;49.440;11.084;2023-04-07T13:22:23;11.77;;;10.57;;
14686;SDS011;7431;49.440;11.084;2023-04-07T13:24:49;12.23;;;11.07;;
14686;SDS011;7431;49.440;11.084;2023-04-07T13:27:15;12.02;;;10.90;;
14686;SDS011;7431;49.440;11.084;2023-04-07T13:29:41;14.40;;;12.38;;
14686;SDS011;7431;49.440;11.084;2023-04-07T13:32:07;15.20;;;12.70;;
14686;SDS011;7431;49.440;11.084;2023-04-07T13:34:35;12.30;;;11.10;;
14686;SDS011;7431;49.440;11.084;2023-04-07T13:37:01;12.90;;;11.60;;
14686;SDS011;7431;49.440;11.084;2023-04-07T13:39:31;13.45;;;12.15;;
14686;SDS011;7431;49.440;11.084;2023-04-07T13:41:58;12.07;;;10.88;;
14686;SDS011;7431;49.440;11.084;2023-04-07T13:44:25;22.15;;;19.58;;
14686;SDS011;7431;49.440;11.084;2023-04-07T13:46:51;11.73;;;10.73;;
14686;SDS011;7431;49.440;11.084;2023-04-07T13:49:17;11.48;;;10.38;;
14686;SDS011;7431;49.440;11.084;2023-04-07T13:51:44;11.70;;;10.60;;
14686;SDS011;7431;49.440;11.084;2023-04-07T13:54:10;12.25;;;10.77;;
14686;SDS011;7431;49.440;11.084;2023-04-07T13:56:36;13.75;;;12.35;;
14686;SDS011;7431;49.440;11.084;2023-04-07T13:59:05;12.18;;;11.02;;
14686;SDS011;7431;49.440;11.084;2023-04-07T14:01:31;12.38;;;11.20;;
14686;SDS011;7431;49.440;11.084;2023-04-07T14:03:58;11.48;;;10.48;;
14686;SDS011;7431;49.440;11.084;2023-04-07T14:06:24;11.50;;;10.35;;
14686;SDS011;7431;49.440;11.084;2023-04-07T14:08:51;11.02;;;10.00;;
14686;SDS011;7431;49.440;11.084;2023-04-07T14:11:17;9.80;;;8.85;;
14686;SDS011;7431;49.440;11.084;2023-04-07T14:13:44;10.23;;;9.32;;
14686;SDS011;7431;49.440;11.084;2023-04-07T14:16:10;10.25;;;9.30;;
14686;SDS011;7431;49.440;11.084;2023-04-07T14:18:37;10.75;;;9.65;;
14686;SDS011;7431;49.440;11.084;2023-04-07T14:21:03;12.07;;;10.82;;
14686;SDS011;7431;49.440;11.084;2023-04-07T14:23:29;11.48;;;10.38;;
14686;SDS011;7431;49.440;11.084;2023-04-07T14:25:58;12.00;;;10.75;;
14686;SDS011;7431;49.440;11.084;2023-04-07T14:28:25;10.73;;;9.70;;
14686;SDS011;7431;49.440;11.084;2023-04-07T14:30:52;10.95;;;9.88;;
14686;SDS011;7431;49.440;11.084;2023-04-07T14:33:18;12.48;;;11.18;;
14686;SDS011;7431;49.440;11.084;2023-04-07T14:35:45;12.52;;;11.30;;
14686;SDS011;7431;49.440;11.084;2023-04-07T14:38:11;11.13;;;10.00;;
14686;SDS011;7431;49.440;11.084;2023-04-07T14:40:37;15.82;;;12.95;;
14686;SDS011;7431;49.440;11.084;2023-04-07T14:43:03;11.52;;;10.43;;
14686;SDS011;7431;49.440;11.084;2023-04-07T14:45:31;10.43;;;9.43;;
14686;SDS011;7431;49.440;11.084;2023-04-07T14:47:57;12.02;;;10.75;;